EDDK/CGN METAR and TAF weather

Enter ICAO airport designator
Station Type Date Time Source
EDDK METAR 2018/01/16 08:50 UTC NOAA

EDDK 160850Z 23011KT 9999 VCSH FEW024CB BKN030 06/03 Q0993 NOSIG


Station Type Date Time Source
EDDK Decoded METAR 2018/01/16 08:50 UTC NOAA

Koeln / Bonn, Germany (EDDK) 50-52N 007-10E 100M
Jan 16, 2018 - 03:50 AM EST / 2018.01.16 0850 UTC
Wind: from the SW (230 degrees) at 13 MPH (11 KT):0
Visibility: greater than 7 mile(s):0
Sky conditions: mostly cloudy
Weather: showers in the vicinity; Cumulonimbus clouds observed
Temperature: 42 F (6 C)
Dew Point: 37 F (3 C)
Relative Humidity: 81%
Pressure (altimeter): 29.32 in. Hg (0993 hPa)
ob: EDDK 160850Z 23011KT 9999 VCSH FEW024CB BKN030 06/03 Q0993 NOSIG
cycle: 9

Station Type Date Time Source
EDDK TAF 2018/01/16 06:27 UTC NOAA

TAF EDDK 160500Z 1606/1712 22011KT 9999 BKN030 PROB30
TEMPO 1606/1608 27020G30KT SHRA BKN020CB
BECMG 1607/1609 25015G25KT
TEMPO 1609/1618 27020G35KT SHRA BKN020CB
BECMG 1617/1619 23010KT
BECMG 1702/1705 27015G25KT
TEMPO 1702/1704 SHRA BKN014CB PROB30
TEMPO 1704/1712 TSRASN BKN014CB
TEMPO 1710/1712 27020G35KT


Example: see airport list